sensor_id;sensor_type;location;lat;lon;timestamp;pressure;altitude;pressure_sealevel;temperature;humidity
48364;BME280;34170;54.364;18.582;2023-07-31T00:02:15;99536.09;;;17.28;100.00
48364;BME280;34170;54.364;18.582;2023-07-31T00:04:43;99527.31;;;17.46;100.00
48364;BME280;34170;54.364;18.582;2023-07-31T00:07:11;99527.09;;;17.54;100.00
48364;BME280;34170;54.364;18.582;2023-07-31T00:09:38;99518.31;;;17.39;100.00
48364;BME280;34170;54.364;18.582;2023-07-31T00:12:06;99520.59;;;17.28;100.00
48364;BME280;34170;54.364;18.582;2023-07-31T00:14:34;99511.84;;;17.26;100.00
48364;BME280;34170;54.364;18.582;2023-07-31T00:17:01;99515.78;;;17.24;100.00
48364;BME280;34170;54.364;18.582;2023-07-31T00:19:29;99507.00;;;17.15;100.00
48364;BME280;34170;54.364;18.582;2023-07-31T00:21:56;99511.81;;;17.33;100.00
48364;BME280;34170;54.364;18.582;2023-07-31T00:24:23;99508.28;;;17.32;100.00
48364;BME280;34170;54.364;18.582;2023-07-31T00:26:51;99505.34;;;17.27;100.00
48364;BME280;34170;54.364;18.582;2023-07-31T00:29:18;99513.69;;;17.32;100.00
48364;BME280;34170;54.364;18.582;2023-07-31T00:31:46;99516.19;;;17.27;100.00
48364;BME280;34170;54.364;18.582;2023-07-31T00:34:13;99518.72;;;17.15;100.00
48364;BME280;34170;54.364;18.582;2023-07-31T00:36:41;99518.94;;;17.21;100.00
48364;BME280;34170;54.364;18.582;2023-07-31T00:39:08;99511.81;;;17.06;100.00
48364;BME280;34170;54.364;18.582;2023-07-31T00:41:36;99502.41;;;17.09;100.00
48364;BME280;34170;54.364;18.582;2023-07-31T00:44:03;99514.50;;;17.00;100.00
48364;BME280;34170;54.364;18.582;2023-07-31T00:46:31;99502.78;;;16.86;100.00
48364;BME280;34170;54.364;18.582;2023-07-31T00:48:59;99503.25;;;17.03;100.00
48364;BME280;34170;54.364;18.582;2023-07-31T00:51:26;99502.81;;;17.06;100.00
48364;BME280;34170;54.364;18.582;2023-07-31T00:53:54;99496.53;;;16.99;100.00
48364;BME280;34170;54.364;18.582;2023-07-31T00:56:23;99505.09;;;16.95;100.00
48364;BME280;34170;54.364;18.582;2023-07-31T00:58:51;99498.81;;;16.88;100.00
48364;BME280;34170;54.364;18.582;2023-07-31T01:01:18;99504.88;;;16.90;100.00
48364;BME280;34170;54.364;18.582;2023-07-31T01:03:46;99480.66;;;17.02;100.00
48364;BME280;34170;54.364;18.582;2023-07-31T01:09:05;99478.56;;;16.98;100.00
48364;BME280;34170;54.364;18.582;2023-07-31T01:11:52;99468.53;;;16.85;100.00
48364;BME280;34170;54.364;18.582;2023-07-31T01:14:20;99467.41;;;16.66;100.00
48364;BME280;34170;54.364;18.582;2023-07-31T01:16:48;99475.56;;;16.72;100.00
48364;BME280;34170;54.364;18.582;2023-07-31T01:19:18;99477.00;;;16.62;100.00
48364;BME280;34170;54.364;18.582;2023-07-31T01:25:16;99467.09;;;16.34;100.00
48364;BME280;34170;54.364;18.582;2023-07-31T01:27:59;99475.63;;;16.24;100.00
48364;BME280;34170;54.364;18.582;2023-07-31T01:30:31;99484.31;;;16.13;100.00
48364;BME280;34170;54.364;18.582;2023-07-31T01:33:02;99476.69;;;16.30;100.00
48364;BME280;34170;54.364;18.582;2023-07-31T01:35:34;99488.72;;;16.14;100.00
48364;BME280;34170;54.364;18.582;2023-07-31T01:38:02;99492.06;;;16.16;100.00
48364;BME280;34170;54.364;18.582;2023-07-31T01:40:30;99482.88;;;16.17;100.00
48364;BME280;34170;54.364;18.582;2023-07-31T01:42:57;99501.69;;;16.25;100.00
48364;BME280;34170;54.364;18.582;2023-07-31T01:45:25;99493.31;;;16.20;100.00
48364;BME280;34170;54.364;18.582;2023-07-31T01:47:53;99501.19;;;16.08;100.00
48364;BME280;34170;54.364;18.582;2023-07-31T01:50:21;99496.56;;;16.02;100.00
48364;BME280;34170;54.364;18.582;2023-07-31T01:52:48;99500.47;;;15.93;100.00
48364;BME280;34170;54.364;18.582;2023-07-31T01:55:16;99491.50;;;15.92;100.00
48364;BME280;34170;54.364;18.582;2023-07-31T01:57:43;99493.53;;;15.84;100.00
48364;BME280;34170;54.364;18.582;2023-07-31T02:00:11;99490.06;;;15.68;100.00
48364;BME280;34170;54.364;18.582;2023-07-31T02:02:39;99496.72;;;15.66;100.00
48364;BME280;34170;54.364;18.582;2023-07-31T02:05:07;99496.00;;;15.78;100.00
48364;BME280;34170;54.364;18.582;2023-07-31T02:07:34;99495.47;;;15.68;100.00
48364;BME280;34170;54.364;18.582;2023-07-31T02:10:02;99498.75;;;15.57;100.00
48364;BME280;34170;54.364;18.582;2023-07-31T02:12:29;99499.06;;;15.69;100.00
48364;BME280;34170;54.364;18.582;2023-07-31T02:14:59;99496.09;;;15.63;100.00
48364;BME280;34170;54.364;18.582;2023-07-31T02:17:26;99494.47;;;15.69;100.00
48364;BME280;34170;54.364;18.582;2023-07-31T02:19:54;99497.50;;;15.59;100.00
48364;BME280;34170;54.364;18.582;2023-07-31T02:22:21;99493.81;;;15.67;100.00
48364;BME280;34170;54.364;18.582;2023-07-31T02:24:49;99485.78;;;15.80;100.00
48364;BME280;34170;54.364;18.582;2023-07-31T02:27:16;99484.97;;;15.80;100.00
48364;BME280;34170;54.364;18.582;2023-07-31T02:29:45;99480.50;;;15.72;100.00
48364;BME280;34170;54.364;18.582;2023-07-31T02:32:13;99495.56;;;15.75;100.00
48364;BME280;34170;54.364;18.582;2023-07-31T02:34:40;99496.63;;;15.80;100.00
48364;BME280;34170;54.364;18.582;2023-07-31T02:37:08;99493.09;;;15.80;100.00
48364;BME280;34170;54.364;18.582;2023-07-31T02:39:36;99497.81;;;15.71;100.00
48364;BME280;34170;54.364;18.582;2023-07-31T02:42:03;99496.78;;;15.72;100.00
48364;BME280;34170;54.364;18.582;2023-07-31T02:44:31;99499.63;;;15.64;100.00
48364;BME280;34170;54.364;18.582;2023-07-31T02:46:59;99499.00;;;15.62;100.00
48364;BME280;34170;54.364;18.582;2023-07-31T02:49:26;99503.47;;;15.48;100.00
48364;BME280;34170;54.364;18.582;2023-07-31T02:51:54;99503.97;;;15.58;100.00
48364;BME280;34170;54.364;18.582;2023-07-31T02:54:21;99503.09;;;15.51;100.00
48364;BME280;34170;54.364;18.582;2023-07-31T02:56:49;99500.31;;;15.44;100.00
48364;BME280;34170;54.364;18.582;2023-07-31T02:59:17;99503.94;;;15.30;100.00
48364;BME280;34170;54.364;18.582;2023-07-31T03:01:45;99501.06;;;15.10;100.00
48364;BME280;34170;54.364;18.582;2023-07-31T03:04:12;99500.34;;;15.23;100.00
48364;BME280;34170;54.364;18.582;2023-07-31T03:06:42;99501.25;;;15.09;100.00
48364;BME280;34170;54.364;18.582;2023-07-31T03:09:09;99502.59;;;15.19;100.00
48364;BME280;34170;54.364;18.582;2023-07-31T03:11:37;99505.44;;;15.11;100.00
48364;BME280;34170;54.364;18.582;2023-07-31T03:14:04;99505.25;;;15.13;100.00
48364;BME280;34170;54.364;18.582;2023-07-31T03:16:32;99508.22;;;15.18;100.00
48364;BME280;34170;54.364;18.582;2023-07-31T03:18:59;99501.25;;;15.09;100.00
48364;BME280;34170;54.364;18.582;2023-07-31T03:21:27;99513.34;;;15.34;100.00
48364;BME280;34170;54.364;18.582;2023-07-31T03:23:54;99515.16;;;15.27;100.00
48364;BME280;34170;54.364;18.582;2023-07-31T03:26:22;99506.53;;;15.17;100.00
48364;BME280;34170;54.364;18.582;2023-07-31T03:28:49;99516.19;;;15.48;100.00
48364;BME280;34170;54.364;18.582;2023-07-31T03:31:17;99511.53;;;15.41;100.00
48364;BME280;34170;54.364;18.582;2023-07-31T03:33:44;99515.69;;;15.37;100.00
48364;BME280;34170;54.364;18.582;2023-07-31T03:36:11;99516.19;;;15.48;100.00
48364;BME280;34170;54.364;18.582;2023-07-31T03:38:39;99520.16;;;15.52;100.00
48364;BME280;34170;54.364;18.582;2023-07-31T03:41:07;99524.81;;;15.79;100.00
48364;BME280;34170;54.364;18.582;2023-07-31T03:43:35;99518.22;;;15.67;100.00
48364;BME280;34170;54.364;18.582;2023-07-31T03:46:03;99528.38;;;16.22;100.00
48364;BME280;34170;54.364;18.582;2023-07-31T03:48:30;99522.25;;;17.16;100.00
48364;BME280;34170;54.364;18.582;2023-07-31T03:50:58;99520.00;;;17.53;100.00
48364;BME280;34170;54.364;18.582;2023-07-31T03:53:25;99527.63;;;16.89;100.00
48364;BME280;34170;54.364;18.582;2023-07-31T03:55:53;99528.03;;;16.86;100.00
48364;BME280;34170;54.364;18.582;2023-07-31T03:58:20;99539.78;;;17.00;100.00
48364;BME280;34170;54.364;18.582;2023-07-31T04:00:48;99541.94;;;17.45;100.00
48364;BME280;34170;54.364;18.582;2023-07-31T04:03:15;99537.53;;;17.50;100.00
48364;BME280;34170;54.364;18.582;2023-07-31T04:05:43;99528.13;;;17.80;100.00
48364;BME280;34170;54.364;18.582;2023-07-31T04:08:10;99533.38;;;17.75;100.00
48364;BME280;34170;54.364;18.582;2023-07-31T04:10:38;99525.69;;;18.50;100.00
48364;BME280;34170;54.364;18.582;2023-07-31T04:13:05;99534.34;;;18.85;100.00
48364;BME280;34170;54.364;18.582;2023-07-31T04:15:32;99529.91;;;18.33;100.00
48364;BME280;34170;54.364;18.582;2023-07-31T04:18:00;99525.41;;;18.00;100.00
48364;BME280;34170;54.364;18.582;2023-07-31T04:20:27;99529.81;;;17.87;100.00
48364;BME280;34170;54.364;18.582;2023-07-31T04:22:55;99529.56;;;18.02;100.00
48364;BME280;34170;54.364;18.582;2023-07-31T04:25:22;99531.41;;;18.28;100.00
48364;BME280;34170;54.364;18.582;2023-07-31T04:27:50;99526.16;;;18.40;100.00
48364;BME280;34170;54.364;18.582;2023-07-31T04:30:17;99536.75;;;18.62;100.00
48364;BME280;34170;54.364;18.582;2023-07-31T04:32:44;99522.41;;;18.28;100.00
48364;BME280;34170;54.364;18.582;2023-07-31T04:35:12;99523.97;;;17.90;100.00
48364;BME280;34170;54.364;18.582;2023-07-31T04:37:39;99521.22;;;17.77;100.00
48364;BME280;34170;54.364;18.582;2023-07-31T04:40:08;99531.06;;;17.45;100.00
48364;BME280;34170;54.364;18.582;2023-07-31T04:42:35;99528.75;;;17.75;100.00
48364;BME280;34170;54.364;18.582;2023-07-31T04:45:03;99526.03;;;17.75;100.00
48364;BME280;34170;54.364;18.582;2023-07-31T04:47:30;99533.78;;;18.05;100.00
48364;BME280;34170;54.364;18.582;2023-07-31T04:49:58;99525.84;;;17.90;100.00
48364;BME280;34170;54.364;18.582;2023-07-31T04:52:26;99525.97;;;18.22;100.00
48364;BME280;34170;54.364;18.582;2023-07-31T04:54:53;99515.97;;;18.16;100.00
48364;BME280;34170;54.364;18.582;2023-07-31T04:57:21;99525.00;;;17.63;100.00
48364;BME280;34170;54.364;18.582;2023-07-31T04:59:48;99522.44;;;18.08;100.00
48364;BME280;34170;54.364;18.582;2023-07-31T05:02:17;99527.47;;;18.18;100.00
48364;BME280;34170;54.364;18.582;2023-07-31T05:04:45;99536.19;;;18.92;100.00
48364;BME280;34170;54.364;18.582;2023-07-31T05:07:12;99535.59;;;19.21;100.00
48364;BME280;34170;54.364;18.582;2023-07-31T05:09:40;99537.41;;;19.28;100.00
48364;BME280;34170;54.364;18.582;2023-07-31T05:12:07;99541.81;;;19.60;100.00
48364;BME280;34170;54.364;18.582;2023-07-31T05:14:35;99542.06;;;20.58;96.88
48364;BME280;34170;54.364;18.582;2023-07-31T05:17:02;99549.31;;;21.01;91.40
48364;BME280;34170;54.364;18.582;2023-07-31T05:19:30;99549.81;;;20.80;92.44
48364;BME280;34170;54.364;18.582;2023-07-31T05:21:58;99558.91;;;20.92;93.04
48364;BME280;34170;54.364;18.582;2023-07-31T05:24:25;99542.38;;;21.71;89.18
48364;BME280;34170;54.364;18.582;2023-07-31T05:26:53;99548.16;;;22.98;80.08
48364;BME280;34170;54.364;18.582;2023-07-31T05:29:20;99549.13;;;24.78;67.93
48364;BME280;34170;54.364;18.582;2023-07-31T05:31:47;99550.34;;;27.74;51.65
48364;BME280;34170;54.364;18.582;2023-07-31T05:34:15;99565.06;;;30.34;43.39
48364;BME280;34170;54.364;18.582;2023-07-31T05:36:42;99554.38;;;33.00;37.01
48364;BME280;34170;54.364;18.582;2023-07-31T05:39:10;99567.63;;;33.99;34.03
48364;BME280;34170;54.364;18.582;2023-07-31T05:41:37;99577.72;;;33.63;33.82
48364;BME280;34170;54.364;18.582;2023-07-31T05:44:05;99566.41;;;34.94;31.58
48364;BME280;34170;54.364;18.582;2023-07-31T05:46:32;99560.88;;;35.55;29.47
48364;BME280;34170;54.364;18.582;2023-07-31T05:49:00;99569.72;;;35.05;30.26
48364;BME280;34170;54.364;18.582;2023-07-31T05:51:28;99560.31;;;36.82;27.34
48364;BME280;34170;54.364;18.582;2023-07-31T05:53:55;99566.69;;;36.71;27.47
48364;BME280;34170;54.364;18.582;2023-07-31T05:56:23;99566.91;;;37.08;27.31
48364;BME280;34170;54.364;18.582;2023-07-31T05:58:50;99576.28;;;37.20;26.14
48364;BME280;34170;54.364;18.582;2023-07-31T06:01:18;99569.25;;;36.85;26.71
48364;BME280;34170;54.364;18.582;2023-07-31T06:03:46;99571.19;;;37.89;25.48
48364;BME280;34170;54.364;18.582;2023-07-31T06:06:13;99583.88;;;38.78;23.91
48364;BME280;34170;54.364;18.582;2023-07-31T06:08:41;99580.06;;;39.23;22.99
48364;BME280;34170;54.364;18.582;2023-07-31T06:11:08;99587.97;;;39.46;23.41
48364;BME280;34170;54.364;18.582;2023-07-31T06:13:36;99581.88;;;39.16;23.54
48364;BME280;34170;54.364;18.582;2023-07-31T06:16:04;99572.41;;;39.77;23.24
48364;BME280;34170;54.364;18.582;2023-07-31T06:18:33;99579.47;;;39.30;23.71
48364;BME280;34170;54.364;18.582;2023-07-31T06:21:00;99579.59;;;40.66;22.36
48364;BME280;34170;54.364;18.582;2023-07-31T06:23:28;99576.13;;;39.00;23.16
48364;BME280;34170;54.364;18.582;2023-07-31T06:25:55;99581.03;;;39.15;23.65
48364;BME280;34170;54.364;18.582;2023-07-31T06:28:30;99582.69;;;38.79;23.63
48364;BME280;34170;54.364;18.582;2023-07-31T06:30:58;99597.19;;;38.94;22.90
48364;BME280;34170;54.364;18.582;2023-07-31T06:33:26;99586.13;;;41.22;21.58
48364;BME280;34170;54.364;18.582;2023-07-31T06:35:53;99585.47;;;39.69;22.56
48364;BME280;34170;54.364;18.582;2023-07-31T06:38:26;99567.72;;;40.92;20.89
48364;BME280;34170;54.364;18.582;2023-07-31T06:40:54;99581.13;;;40.48;21.75
48364;BME280;34170;54.364;18.582;2023-07-31T06:43:21;99591.69;;;41.73;20.80
48364;BME280;34170;54.364;18.582;2023-07-31T06:45:49;99590.53;;;41.58;19.66
48364;BME280;34170;54.364;18.582;2023-07-31T06:48:18;99585.09;;;42.31;19.11
48364;BME280;34170;54.364;18.582;2023-07-31T06:50:46;99602.66;;;43.47;18.18
48364;BME280;34170;54.364;18.582;2023-07-31T06:53:13;99591.81;;;39.94;21.11
48364;BME280;34170;54.364;18.582;2023-07-31T06:55:41;99598.16;;;42.89;18.73
48364;BME280;34170;54.364;18.582;2023-07-31T06:58:09;99592.53;;;42.62;18.54
48364;BME280;34170;54.364;18.582;2023-07-31T07:00:36;99591.41;;;41.82;19.05
48364;BME280;34170;54.364;18.582;2023-07-31T07:03:04;99598.09;;;40.99;20.81
48364;BME280;34170;54.364;18.582;2023-07-31T07:05:32;99592.81;;;42.11;19.28
48364;BME280;34170;54.364;18.582;2023-07-31T07:07:59;99597.44;;;42.46;18.57
48364;BME280;34170;54.364;18.582;2023-07-31T07:10:27;99597.22;;;41.50;19.33
48364;BME280;34170;54.364;18.582;2023-07-31T07:12:54;99596.19;;;40.24;20.75
48364;BME280;34170;54.364;18.582;2023-07-31T07:15:22;99592.09;;;41.95;19.24
48364;BME280;34170;54.364;18.582;2023-07-31T07:17:50;99599.53;;;42.26;18.67
48364;BME280;34170;54.364;18.582;2023-07-31T07:20:17;99601.22;;;42.07;18.05
48364;BME280;34170;54.364;18.582;2023-07-31T07:22:46;99577.84;;;41.29;19.15
48364;BME280;34170;54.364;18.582;2023-07-31T07:25:14;99586.63;;;39.27;21.05
48364;BME280;34170;54.364;18.582;2023-07-31T07:27:41;99583.84;;;39.84;21.38
48364;BME280;34170;54.364;18.582;2023-07-31T07:30:09;99578.94;;;41.44;19.68
48364;BME280;34170;54.364;18.582;2023-07-31T07:32:37;99584.78;;;42.59;18.38
48364;BME280;34170;54.364;18.582;2023-07-31T07:35:04;99576.19;;;41.28;19.50
48364;BME280;34170;54.364;18.582;2023-07-31T07:37:32;99580.53;;;42.73;18.42
48364;BME280;34170;54.364;18.582;2023-07-31T07:40:00;99578.28;;;41.31;19.29
48364;BME280;34170;54.364;18.582;2023-07-31T07:42:27;99580.44;;;42.42;18.09
48364;BME280;34170;54.364;18.582;2023-07-31T07:44:55;99572.31;;;41.16;19.00
48364;BME280;34170;54.364;18.582;2023-07-31T07:47:22;99585.28;;;40.06;19.79
48364;BME280;34170;54.364;18.582;2023-07-31T07:49:50;99578.66;;;40.78;19.10
48364;BME280;34170;54.364;18.582;2023-07-31T07:52:19;99570.81;;;39.92;19.93
48364;BME280;34170;54.364;18.582;2023-07-31T07:54:47;99568.88;;;39.80;19.63
48364;BME280;34170;54.364;18.582;2023-07-31T07:57:14;99555.03;;;38.20;21.35
48364;BME280;34170;54.364;18.582;2023-07-31T07:59:42;99561.69;;;36.38;22.81
48364;BME280;34170;54.364;18.582;2023-07-31T08:02:09;99555.16;;;36.63;22.30
48364;BME280;34170;54.364;18.582;2023-07-31T08:04:36;99553.00;;;33.26;26.25
48364;BME280;34170;54.364;18.582;2023-07-31T08:07:04;99549.78;;;32.68;27.28
48364;BME280;34170;54.364;18.582;2023-07-31T08:09:32;99550.47;;;33.38;25.53
48364;BME280;34170;54.364;18.582;2023-07-31T08:12:00;99557.41;;;35.23;24.35
48364;BME280;34170;54.364;18.582;2023-07-31T08:14:30;99553.75;;;35.05;24.22
48364;BME280;34170;54.364;18.582;2023-07-31T08:17:00;99550.22;;;32.98;26.50
48364;BME280;34170;54.364;18.582;2023-07-31T08:19:27;99547.66;;;32.04;28.10
48364;BME280;34170;54.364;18.582;2023-07-31T08:21:55;99551.25;;;34.78;24.33
48364;BME280;34170;54.364;18.582;2023-07-31T08:24:24;99561.94;;;34.35;24.83
48364;BME280;34170;54.364;18.582;2023-07-31T08:26:52;99561.50;;;32.23;26.82
48364;BME280;34170;54.364;18.582;2023-07-31T08:29:19;99549.25;;;33.30;25.60
48364;BME280;34170;54.364;18.582;2023-07-31T08:31:47;99535.03;;;30.41;28.49
48364;BME280;34170;54.364;18.582;2023-07-31T08:34:14;99539.25;;;28.20;32.09
48364;BME280;34170;54.364;18.582;2023-07-31T08:36:42;99546.03;;;29.24;31.02
48364;BME280;34170;54.364;18.582;2023-07-31T08:39:09;99540.34;;;29.44;31.11
48364;BME280;34170;54.364;18.582;2023-07-31T08:41:38;99537.56;;;28.29;32.61
48364;BME280;34170;54.364;18.582;2023-07-31T08:44:10;99530.50;;;29.97;30.58
48364;BME280;34170;54.364;18.582;2023-07-31T08:46:38;99539.31;;;28.90;32.31
48364;BME280;34170;54.364;18.582;2023-07-31T08:49:07;99545.81;;;30.67;29.42
48364;BME280;34170;54.364;18.582;2023-07-31T08:51:36;99532.91;;;30.57;30.19
48364;BME280;34170;54.364;18.582;2023-07-31T08:54:04;99541.59;;;30.93;29.79
48364;BME280;34170;54.364;18.582;2023-07-31T08:56:32;99536.28;;;33.26;26.56
48364;BME280;34170;54.364;18.582;2023-07-31T08:59:02;99539.22;;;32.93;26.65
48364;BME280;34170;54.364;18.582;2023-07-31T09:01:30;99541.34;;;33.91;26.25
48364;BME280;34170;54.364;18.582;2023-07-31T09:04:01;99533.53;;;35.96;23.32
48364;BME280;34170;54.364;18.582;2023-07-31T09:06:32;99537.47;;;35.86;23.66
48364;BME280;34170;54.364;18.582;2023-07-31T09:09:00;99524.53;;;33.74;25.19
48364;BME280;34170;54.364;18.582;2023-07-31T09:11:28;99532.75;;;35.08;24.23
48364;BME280;34170;54.364;18.582;2023-07-31T09:13:57;99527.81;;;35.13;24.20
48364;BME280;34170;54.364;18.582;2023-07-31T09:16:28;99522.66;;;33.10;26.87
48364;BME280;34170;54.364;18.582;2023-07-31T09:18:59;99529.16;;;31.29;28.52
48364;BME280;34170;54.364;18.582;2023-07-31T09:21:29;99520.97;;;30.56;29.26
48364;BME280;34170;54.364;18.582;2023-07-31T09:23:57;99523.31;;;31.30;28.45
48364;BME280;34170;54.364;18.582;2023-07-31T09:26:37;99510.97;;;31.56;29.33
48364;BME280;34170;54.364;18.582;2023-07-31T09:29:07;99514.94;;;32.29;27.68
48364;BME280;34170;54.364;18.582;2023-07-31T09:31:45;99531.53;;;33.26;26.77
48364;BME280;34170;54.364;18.582;2023-07-31T09:34:13;99532.09;;;34.36;25.01
48364;BME280;34170;54.364;18.582;2023-07-31T09:36:49;99523.06;;;35.40;23.42
48364;BME280;34170;54.364;18.582;2023-07-31T09:39:17;99523.06;;;36.31;22.64
48364;BME280;34170;54.364;18.582;2023-07-31T09:41:54;99523.59;;;33.87;25.42
48364;BME280;34170;54.364;18.582;2023-07-31T09:44:37;99514.91;;;29.72;29.74
48364;BME280;34170;54.364;18.582;2023-07-31T09:47:05;99510.78;;;29.69;30.23
48364;BME280;34170;54.364;18.582;2023-07-31T09:49:32;99504.22;;;30.18;30.79
48364;BME280;34170;54.364;18.582;2023-07-31T09:52:01;99499.69;;;31.80;27.63
48364;BME280;34170;54.364;18.582;2023-07-31T09:54:28;99501.44;;;31.43;28.43
48364;BME280;34170;54.364;18.582;2023-07-31T09:56:56;99501.34;;;30.72;29.67
48364;BME280;34170;54.364;18.582;2023-07-31T09:59:26;99490.47;;;31.51;29.07
48364;BME280;34170;54.364;18.582;2023-07-31T10:01:55;99486.66;;;30.90;29.46
48364;BME280;34170;54.364;18.582;2023-07-31T10:04:28;99491.50;;;31.88;28.42
48364;BME280;34170;54.364;18.582;2023-07-31T10:06:57;99493.41;;;32.48;27.92
48364;BME280;34170;54.364;18.582;2023-07-31T10:09:31;99495.63;;;33.11;26.60
48364;BME280;34170;54.364;18.582;2023-07-31T10:12:00;99489.09;;;31.68;27.96
48364;BME280;34170;54.364;18.582;2023-07-31T10:14:29;99482.94;;;28.76;31.39
48364;BME280;34170;54.364;18.582;2023-07-31T10:16:58;99482.81;;;30.00;29.95
48364;BME280;34170;54.364;18.582;2023-07-31T10:19:26;99477.56;;;31.09;28.40
48364;BME280;34170;54.364;18.582;2023-07-31T10:21:55;99476.78;;;30.84;27.62
48364;BME280;34170;54.364;18.582;2023-07-31T10:24:24;99473.56;;;31.48;27.30
48364;BME280;34170;54.364;18.582;2023-07-31T10:26:53;99477.31;;;33.55;25.00
48364;BME280;34170;54.364;18.582;2023-07-31T10:29:22;99474.44;;;34.00;23.81
48364;BME280;34170;54.364;18.582;2023-07-31T10:31:52;99470.09;;;32.72;25.65
48364;BME280;34170;54.364;18.582;2023-07-31T10:34:19;99467.50;;;31.92;27.03
48364;BME280;34170;54.364;18.582;2023-07-31T10:36:47;99466.69;;;31.26;27.88
48364;BME280;34170;54.364;18.582;2023-07-31T10:39:34;99455.94;;;29.37;31.16
48364;BME280;34170;54.364;18.582;2023-07-31T10:42:13;99457.56;;;27.22;33.95
48364;BME280;34170;54.364;18.582;2023-07-31T10:44:46;99449.56;;;27.10;34.93
48364;BME280;34170;54.364;18.582;2023-07-31T10:47:15;99456.69;;;26.75;34.91
48364;BME280;34170;54.364;18.582;2023-07-31T10:49:46;99448.09;;;26.61;35.50
48364;BME280;34170;54.364;18.582;2023-07-31T10:52:21;99454.19;;;26.68;36.41
48364;BME280;34170;54.364;18.582;2023-07-31T10:55:14;99450.16;;;25.80;37.17
48364;BME280;34170;54.364;18.582;2023-07-31T10:57:47;99447.47;;;26.43;36.80
48364;BME280;34170;54.364;18.582;2023-07-31T11:00:33;99445.41;;;26.97;37.06
48364;BME280;34170;54.364;18.582;2023-07-31T11:03:09;99459.25;;;27.53;36.45
48364;BME280;34170;54.364;18.582;2023-07-31T11:08:33;99437.97;;;26.14;36.80
48364;BME280;34170;54.364;18.582;2023-07-31T11:13:52;99435.13;;;26.67;37.45
48364;BME280;34170;54.364;18.582;2023-07-31T11:16:23;99435.16;;;26.72;36.62
48364;BME280;34170;54.364;18.582;2023-07-31T11:18:52;99447.38;;;27.17;35.47
48364;BME280;34170;54.364;18.582;2023-07-31T11:21:23;99440.03;;;25.48;38.23
48364;BME280;34170;54.364;18.582;2023-07-31T11:23:53;99443.34;;;25.88;38.53
48364;BME280;34170;54.364;18.582;2023-07-31T11:26:21;99437.28;;;26.44;37.27
48364;BME280;34170;54.364;18.582;2023-07-31T11:28:50;99443.63;;;24.84;40.20
48364;BME280;34170;54.364;18.582;2023-07-31T11:31:18;99447.41;;;25.10;39.69
48364;BME280;34170;54.364;18.582;2023-07-31T11:33:46;99446.25;;;25.71;39.38
48364;BME280;34170;54.364;18.582;2023-07-31T11:36:20;99428.50;;;25.52;38.87
48364;BME280;34170;54.364;18.582;2023-07-31T11:38:48;99438.19;;;25.54;39.84
48364;BME280;34170;54.364;18.582;2023-07-31T11:41:16;99437.34;;;25.96;39.85
48364;BME280;34170;54.364;18.582;2023-07-31T11:43:48;99433.41;;;25.87;40.18
48364;BME280;34170;54.364;18.582;2023-07-31T11:46:15;99431.72;;;25.11;41.16
48364;BME280;34170;54.364;18.582;2023-07-31T11:48:43;99434.84;;;25.20;40.52
48364;BME280;34170;54.364;18.582;2023-07-31T11:51:13;99433.84;;;25.63;40.67
48364;BME280;34170;54.364;18.582;2023-07-31T11:53:47;99431.44;;;25.35;42.54
48364;BME280;34170;54.364;18.582;2023-07-31T11:56:18;99426.22;;;24.79;42.39
48364;BME280;34170;54.364;18.582;2023-07-31T11:58:48;99426.06;;;24.90;42.48
48364;BME280;34170;54.364;18.582;2023-07-31T12:01:18;99423.19;;;25.35;42.63
48364;BME280;34170;54.364;18.582;2023-07-31T12:03:48;99438.94;;;24.58;44.52
48364;BME280;34170;54.364;18.582;2023-07-31T12:06:16;99430.94;;;24.83;44.82
48364;BME280;34170;54.364;18.582;2023-07-31T12:08:44;99434.94;;;24.48;44.12
48364;BME280;34170;54.364;18.582;2023-07-31T12:11:11;99417.88;;;24.96;43.86
48364;BME280;34170;54.364;18.582;2023-07-31T12:13:41;99431.53;;;25.18;42.99
48364;BME280;34170;54.364;18.582;2023-07-31T12:16:08;99425.00;;;25.61;42.38
48364;BME280;34170;54.364;18.582;2023-07-31T12:18:37;99424.69;;;25.53;42.01
48364;BME280;34170;54.364;18.582;2023-07-31T12:21:08;99424.50;;;25.69;42.80
48364;BME280;34170;54.364;18.582;2023-07-31T12:23:39;99424.59;;;25.10;43.49
48364;BME280;34170;54.364;18.582;2023-07-31T12:26:13;99425.72;;;24.32;44.75
48364;BME280;34170;54.364;18.582;2023-07-31T12:31:14;99419.72;;;23.91;48.35
48364;BME280;34170;54.364;18.582;2023-07-31T12:33:42;99421.94;;;23.21;49.55
48364;BME280;34170;54.364;18.582;2023-07-31T12:36:15;99422.69;;;23.73;47.88
48364;BME280;34170;54.364;18.582;2023-07-31T12:38:43;99425.56;;;23.61;47.95
48364;BME280;34170;54.364;18.582;2023-07-31T12:41:11;99425.16;;;23.52;49.54
48364;BME280;34170;54.364;18.582;2023-07-31T12:43:40;99413.41;;;23.57;50.08
48364;BME280;34170;54.364;18.582;2023-07-31T12:46:08;99426.66;;;23.60;49.39
48364;BME280;34170;54.364;18.582;2023-07-31T12:48:38;99424.81;;;23.83;49.59
48364;BME280;34170;54.364;18.582;2023-07-31T12:51:06;99414.22;;;23.74;50.57
48364;BME280;34170;54.364;18.582;2023-07-31T12:53:36;99424.81;;;23.83;50.44
48364;BME280;34170;54.364;18.582;2023-07-31T12:56:04;99405.59;;;23.83;50.06
48364;BME280;34170;54.364;18.582;2023-07-31T12:58:32;99406.88;;;23.07;52.00
48364;BME280;34170;54.364;18.582;2023-07-31T13:01:00;99397.34;;;23.10;52.89
48364;BME280;34170;54.364;18.582;2023-07-31T13:03:29;99402.91;;;23.32;52.40
48364;BME280;34170;54.364;18.582;2023-07-31T13:05:57;99405.56;;;23.44;52.75
48364;BME280;34170;54.364;18.582;2023-07-31T13:08:24;99393.91;;;23.19;53.51